METAR Data
IDs: Format: Raw Decoded Include TAF

Data at: 0233 UTC 25 Jan 2020

KHWD 250154Z 33005KT 10SM OVC055 15/11 A3013 RMK AO2 SLP213 T01500111
No TAF found for KHWD

KBFL 250154Z 15004KT 5SM HZ FEW029 BKN040 12/08 A3015 RMK AO2 SLP209 T01170083

KBFL 242339Z 2500/2524 29003KT 4SM BR OVC025
  FM251400 12003KT 2SM BR OVC005
  FM252000 23004KT 4SM HZ BKN250


KIFP 250215Z AUTO 00000KT 10SM CLR 18/02 A2996 RMK AO2

KIFP 242320Z 2500/2524 01010KT P6SM BKN250
  FM251400 36014KT P6SM SCT250